sensor_id;sensor_type;location;lat;lon;timestamp;temperature;humidity
27162;DHT22;54464;50.558;9.704;2022-08-19T00:01:31;19.40;99.90
27162;DHT22;54464;50.558;9.704;2022-08-19T00:03:58;19.40;99.90
27162;DHT22;54464;50.558;9.704;2022-08-19T00:06:24;19.50;99.90
27162;DHT22;54464;50.558;9.704;2022-08-19T00:08:50;19.40;99.90
27162;DHT22;54464;50.558;9.704;2022-08-19T00:11:17;19.40;99.90
27162;DHT22;54464;50.558;9.704;2022-08-19T00:13:42;19.40;99.90
27162;DHT22;54464;50.558;9.704;2022-08-19T00:16:08;19.30;99.90
27162;DHT22;54464;50.558;9.704;2022-08-19T00:18:34;19.30;99.90
27162;DHT22;54464;50.558;9.704;2022-08-19T00:21:00;19.20;99.90
27162;DHT22;54464;50.558;9.704;2022-08-19T00:23:26;19.20;99.90
27162;DHT22;54464;50.558;9.704;2022-08-19T00:25:52;19.10;99.90
27162;DHT22;54464;50.558;9.704;2022-08-19T00:28:19;19.10;99.90
27162;DHT22;54464;50.558;9.704;2022-08-19T00:30:46;19.10;99.90
27162;DHT22;54464;50.558;9.704;2022-08-19T00:33:11;19.10;99.90
27162;DHT22;54464;50.558;9.704;2022-08-19T00:35:37;19.00;99.90
27162;DHT22;54464;50.558;9.704;2022-08-19T00:38:04;19.00;99.90
27162;DHT22;54464;50.558;9.704;2022-08-19T00:40:32;19.00;99.90
27162;DHT22;54464;50.558;9.704;2022-08-19T00:42:58;18.90;99.90
27162;DHT22;54464;50.558;9.704;2022-08-19T00:45:26;18.90;99.90
27162;DHT22;54464;50.558;9.704;2022-08-19T00:47:52;18.90;99.90
27162;DHT22;54464;50.558;9.704;2022-08-19T00:50:19;18.90;99.90
27162;DHT22;54464;50.558;9.704;2022-08-19T00:52:48;18.90;99.90
27162;DHT22;54464;50.558;9.704;2022-08-19T00:55:21;18.90;99.90
27162;DHT22;54464;50.558;9.704;2022-08-19T00:57:56;18.90;99.90
27162;DHT22;54464;50.558;9.704;2022-08-19T01:00:25;18.90;99.90
27162;DHT22;54464;50.558;9.704;2022-08-19T01:02:52;18.90;99.90
27162;DHT22;54464;50.558;9.704;2022-08-19T01:05:23;18.90;99.90
27162;DHT22;54464;50.558;9.704;2022-08-19T01:07:50;18.90;99.90
27162;DHT22;54464;50.558;9.704;2022-08-19T01:10:19;18.90;99.90
27162;DHT22;54464;50.558;9.704;2022-08-19T01:12:46;18.90;99.90
27162;DHT22;54464;50.558;9.704;2022-08-19T01:15:16;18.80;99.90
27162;DHT22;54464;50.558;9.704;2022-08-19T01:17:43;18.80;99.90
27162;DHT22;54464;50.558;9.704;2022-08-19T01:20:13;18.80;99.90
27162;DHT22;54464;50.558;9.704;2022-08-19T01:22:51;18.80;99.90
27162;DHT22;54464;50.558;9.704;2022-08-19T01:25:20;18.80;99.90
27162;DHT22;54464;50.558;9.704;2022-08-19T01:27:49;18.80;99.90
27162;DHT22;54464;50.558;9.704;2022-08-19T01:30:21;18.80;99.90
27162;DHT22;54464;50.558;9.704;2022-08-19T01:32:49;18.80;99.90
27162;DHT22;54464;50.558;9.704;2022-08-19T01:35:15;18.80;99.90
27162;DHT22;54464;50.558;9.704;2022-08-19T01:38:01;18.80;99.90
27162;DHT22;54464;50.558;9.704;2022-08-19T01:40:30;18.80;99.90
27162;DHT22;54464;50.558;9.704;2022-08-19T01:42:57;18.80;99.90
27162;DHT22;54464;50.558;9.704;2022-08-19T01:45:25;18.80;99.90
27162;DHT22;54464;50.558;9.704;2022-08-19T01:47:52;18.80;99.90
27162;DHT22;54464;50.558;9.704;2022-08-19T01:50:18;18.80;99.90
27162;DHT22;54464;50.558;9.704;2022-08-19T01:52:44;18.80;99.90
27162;DHT22;54464;50.558;9.704;2022-08-19T01:55:13;18.80;99.90
27162;DHT22;54464;50.558;9.704;2022-08-19T01:57:42;18.80;99.90
27162;DHT22;54464;50.558;9.704;2022-08-19T02:00:12;18.80;99.90
27162;DHT22;54464;50.558;9.704;2022-08-19T02:02:39;18.80;99.90
27162;DHT22;54464;50.558;9.704;2022-08-19T02:05:05;18.80;99.90
27162;DHT22;54464;50.558;9.704;2022-08-19T02:07:34;18.70;99.90
27162;DHT22;54464;50.558;9.704;2022-08-19T02:10:03;18.70;99.90
27162;DHT22;54464;50.558;9.704;2022-08-19T02:12:29;18.70;99.90
27162;DHT22;54464;50.558;9.704;2022-08-19T02:14:54;18.70;99.90
27162;DHT22;54464;50.558;9.704;2022-08-19T02:17:20;18.70;99.90
27162;DHT22;54464;50.558;9.704;2022-08-19T02:19:46;18.70;99.90
27162;DHT22;54464;50.558;9.704;2022-08-19T02:22:11;18.60;99.90
27162;DHT22;54464;50.558;9.704;2022-08-19T02:24:37;18.60;99.90
27162;DHT22;54464;50.558;9.704;2022-08-19T02:27:04;18.50;99.90
27162;DHT22;54464;50.558;9.704;2022-08-19T02:29:30;18.50;99.90
27162;DHT22;54464;50.558;9.704;2022-08-19T02:31:56;18.50;99.90
27162;DHT22;54464;50.558;9.704;2022-08-19T02:34:21;18.50;99.90
27162;DHT22;54464;50.558;9.704;2022-08-19T02:36:47;18.50;99.90
27162;DHT22;54464;50.558;9.704;2022-08-19T02:39:13;18.50;99.90
27162;DHT22;54464;50.558;9.704;2022-08-19T02:41:39;18.40;99.90
27162;DHT22;54464;50.558;9.704;2022-08-19T02:44:04;18.40;99.90
27162;DHT22;54464;50.558;9.704;2022-08-19T02:46:32;18.50;99.90
27162;DHT22;54464;50.558;9.704;2022-08-19T02:49:00;18.50;99.90
27162;DHT22;54464;50.558;9.704;2022-08-19T02:51:36;18.50;99.90
27162;DHT22;54464;50.558;9.704;2022-08-19T02:54:02;18.50;99.90
27162;DHT22;54464;50.558;9.704;2022-08-19T02:56:30;18.60;99.90
27162;DHT22;54464;50.558;9.704;2022-08-19T02:58:56;18.60;99.90
27162;DHT22;54464;50.558;9.704;2022-08-19T03:01:32;18.60;99.90
27162;DHT22;54464;50.558;9.704;2022-08-19T03:04:00;18.60;99.90
27162;DHT22;54464;50.558;9.704;2022-08-19T03:06:26;18.60;99.90
27162;DHT22;54464;50.558;9.704;2022-08-19T03:08:53;18.60;99.90
27162;DHT22;54464;50.558;9.704;2022-08-19T03:13:48;18.60;99.90
27162;DHT22;54464;50.558;9.704;2022-08-19T03:16:18;18.60;99.90
27162;DHT22;54464;50.558;9.704;2022-08-19T03:18:44;18.60;99.90
27162;DHT22;54464;50.558;9.704;2022-08-19T03:21:18;18.60;99.90
27162;DHT22;54464;50.558;9.704;2022-08-19T03:23:45;18.60;99.90
27162;DHT22;54464;50.558;9.704;2022-08-19T03:26:10;18.60;99.90
27162;DHT22;54464;50.558;9.704;2022-08-19T03:28:36;18.60;99.90
27162;DHT22;54464;50.558;9.704;2022-08-19T03:31:09;18.60;99.90
27162;DHT22;54464;50.558;9.704;2022-08-19T03:33:35;18.50;99.90
27162;DHT22;54464;50.558;9.704;2022-08-19T03:36:12;18.50;99.90
27162;DHT22;54464;50.558;9.704;2022-08-19T03:38:50;18.50;99.90
27162;DHT22;54464;50.558;9.704;2022-08-19T03:41:18;18.50;99.90
27162;DHT22;54464;50.558;9.704;2022-08-19T03:43:45;18.50;99.90
27162;DHT22;54464;50.558;9.704;2022-08-19T03:46:17;18.50;99.90
27162;DHT22;54464;50.558;9.704;2022-08-19T03:48:46;18.50;99.90
27162;DHT22;54464;50.558;9.704;2022-08-19T03:51:24;18.50;99.90
27162;DHT22;54464;50.558;9.704;2022-08-19T03:53:51;18.40;99.90
27162;DHT22;54464;50.558;9.704;2022-08-19T03:56:17;18.40;99.90
27162;DHT22;54464;50.558;9.704;2022-08-19T03:58:42;18.40;99.90
27162;DHT22;54464;50.558;9.704;2022-08-19T04:01:12;18.40;99.90
27162;DHT22;54464;50.558;9.704;2022-08-19T04:03:38;18.40;99.90
27162;DHT22;54464;50.558;9.704;2022-08-19T04:06:16;18.30;99.90
27162;DHT22;54464;50.558;9.704;2022-08-19T04:08:43;18.30;99.90
27162;DHT22;54464;50.558;9.704;2022-08-19T04:11:14;18.20;99.90
27162;DHT22;54464;50.558;9.704;2022-08-19T04:13:41;18.30;99.90
27162;DHT22;54464;50.558;9.704;2022-08-19T04:16:08;18.20;99.90
27162;DHT22;54464;50.558;9.704;2022-08-19T04:18:37;18.20;99.90
27162;DHT22;54464;50.558;9.704;2022-08-19T04:21:03;18.20;99.90
27162;DHT22;54464;50.558;9.704;2022-08-19T04:23:29;18.30;99.90
27162;DHT22;54464;50.558;9.704;2022-08-19T04:25:55;18.30;99.90
27162;DHT22;54464;50.558;9.704;2022-08-19T04:28:22;18.30;99.90
27162;DHT22;54464;50.558;9.704;2022-08-19T04:30:50;18.30;99.90
27162;DHT22;54464;50.558;9.704;2022-08-19T04:33:19;18.30;99.90
27162;DHT22;54464;50.558;9.704;2022-08-19T04:35:47;18.40;99.90
27162;DHT22;54464;50.558;9.704;2022-08-19T04:38:14;18.40;99.90
27162;DHT22;54464;50.558;9.704;2022-08-19T04:40:42;18.40;99.90
27162;DHT22;54464;50.558;9.704;2022-08-19T04:43:28;18.40;99.90
27162;DHT22;54464;50.558;9.704;2022-08-19T04:45:55;18.50;99.90
27162;DHT22;54464;50.558;9.704;2022-08-19T04:48:21;18.50;99.90
27162;DHT22;54464;50.558;9.704;2022-08-19T04:50:52;18.60;99.90
27162;DHT22;54464;50.558;9.704;2022-08-19T04:53:26;18.60;99.90
27162;DHT22;54464;50.558;9.704;2022-08-19T04:55:58;18.60;99.90
27162;DHT22;54464;50.558;9.704;2022-08-19T04:58:25;18.60;99.90
27162;DHT22;54464;50.558;9.704;2022-08-19T05:00:51;18.60;99.90
27162;DHT22;54464;50.558;9.704;2022-08-19T05:03:17;18.60;99.90
27162;DHT22;54464;50.558;9.704;2022-08-19T05:05:44;18.60;99.90
27162;DHT22;54464;50.558;9.704;2022-08-19T05:08:15;18.60;99.90
27162;DHT22;54464;50.558;9.704;2022-08-19T05:10:46;18.60;99.90
27162;DHT22;54464;50.558;9.704;2022-08-19T05:13:12;18.60;99.90
27162;DHT22;54464;50.558;9.704;2022-08-19T05:15:38;18.60;99.90
27162;DHT22;54464;50.558;9.704;2022-08-19T05:18:04;18.70;99.90
27162;DHT22;54464;50.558;9.704;2022-08-19T05:20:48;18.70;99.90
27162;DHT22;54464;50.558;9.704;2022-08-19T05:23:32;18.80;99.90
27162;DHT22;54464;50.558;9.704;2022-08-19T05:25:57;18.90;99.90
27162;DHT22;54464;50.558;9.704;2022-08-19T05:28:23;18.90;99.90
27162;DHT22;54464;50.558;9.704;2022-08-19T05:30:49;18.90;99.90
27162;DHT22;54464;50.558;9.704;2022-08-19T05:33:17;18.90;99.90
27162;DHT22;54464;50.558;9.704;2022-08-19T05:35:43;18.90;99.90
27162;DHT22;54464;50.558;9.704;2022-08-19T05:38:09;18.90;99.90
27162;DHT22;54464;50.558;9.704;2022-08-19T05:40:37;18.90;99.90
27162;DHT22;54464;50.558;9.704;2022-08-19T05:43:04;19.00;99.90
27162;DHT22;54464;50.558;9.704;2022-08-19T05:45:30;19.00;99.90
27162;DHT22;54464;50.558;9.704;2022-08-19T05:47:56;19.00;99.90
27162;DHT22;54464;50.558;9.704;2022-08-19T05:50:24;19.10;99.90
27162;DHT22;54464;50.558;9.704;2022-08-19T05:52:50;19.10;99.90
27162;DHT22;54464;50.558;9.704;2022-08-19T05:55:16;19.10;99.90
27162;DHT22;54464;50.558;9.704;2022-08-19T05:57:42;19.00;99.90
27162;DHT22;54464;50.558;9.704;2022-08-19T06:00:08;19.10;99.90
27162;DHT22;54464;50.558;9.704;2022-08-19T06:02:35;19.10;99.90
27162;DHT22;54464;50.558;9.704;2022-08-19T06:05:03;19.10;99.90
27162;DHT22;54464;50.558;9.704;2022-08-19T06:07:31;19.10;99.90
27162;DHT22;54464;50.558;9.704;2022-08-19T06:09:57;19.10;99.90
27162;DHT22;54464;50.558;9.704;2022-08-19T06:12:22;19.10;99.90
27162;DHT22;54464;50.558;9.704;2022-08-19T06:14:57;19.00;99.90
27162;DHT22;54464;50.558;9.704;2022-08-19T06:17:22;19.00;99.90
27162;DHT22;54464;50.558;9.704;2022-08-19T06:19:51;19.00;99.90
27162;DHT22;54464;50.558;9.704;2022-08-19T06:22:17;19.00;99.90
27162;DHT22;54464;50.558;9.704;2022-08-19T06:24:43;19.00;99.90
27162;DHT22;54464;50.558;9.704;2022-08-19T06:27:10;19.00;99.90
27162;DHT22;54464;50.558;9.704;2022-08-19T06:29:38;19.00;99.90
27162;DHT22;54464;50.558;9.704;2022-08-19T06:32:04;19.10;99.90
27162;DHT22;54464;50.558;9.704;2022-08-19T06:34:32;19.10;99.90
27162;DHT22;54464;50.558;9.704;2022-08-19T06:37:00;19.10;99.90
27162;DHT22;54464;50.558;9.704;2022-08-19T06:39:30;19.20;99.90
27162;DHT22;54464;50.558;9.704;2022-08-19T06:41:59;19.20;99.90
27162;DHT22;54464;50.558;9.704;2022-08-19T06:44:27;19.30;99.90
27162;DHT22;54464;50.558;9.704;2022-08-19T06:46:55;19.30;99.90
27162;DHT22;54464;50.558;9.704;2022-08-19T06:49:22;19.30;99.90
27162;DHT22;54464;50.558;9.704;2022-08-19T06:51:49;19.30;99.90
27162;DHT22;54464;50.558;9.704;2022-08-19T06:54:16;19.30;99.90
27162;DHT22;54464;50.558;9.704;2022-08-19T06:56:42;19.20;99.90
27162;DHT22;54464;50.558;9.704;2022-08-19T06:59:13;19.30;99.90
27162;DHT22;54464;50.558;9.704;2022-08-19T07:01:42;19.30;99.90
27162;DHT22;54464;50.558;9.704;2022-08-19T07:04:13;19.20;99.90
27162;DHT22;54464;50.558;9.704;2022-08-19T07:06:38;19.30;99.90
27162;DHT22;54464;50.558;9.704;2022-08-19T07:09:06;19.30;99.90
27162;DHT22;54464;50.558;9.704;2022-08-19T07:11:32;19.30;99.90
27162;DHT22;54464;50.558;9.704;2022-08-19T07:13:58;19.30;99.90
27162;DHT22;54464;50.558;9.704;2022-08-19T07:16:24;19.40;99.90
27162;DHT22;54464;50.558;9.704;2022-08-19T07:18:51;19.40;99.90
27162;DHT22;54464;50.558;9.704;2022-08-19T07:21:26;19.50;99.90
27162;DHT22;54464;50.558;9.704;2022-08-19T07:23:53;19.60;99.90
27162;DHT22;54464;50.558;9.704;2022-08-19T07:26:31;19.70;99.90
27162;DHT22;54464;50.558;9.704;2022-08-19T07:29:00;19.70;99.90
27162;DHT22;54464;50.558;9.704;2022-08-19T07:31:28;19.70;99.90
27162;DHT22;54464;50.558;9.704;2022-08-19T07:33:55;19.70;99.90
27162;DHT22;54464;50.558;9.704;2022-08-19T07:36:25;19.70;99.90
27162;DHT22;54464;50.558;9.704;2022-08-19T07:38:59;19.80;99.90
27162;DHT22;54464;50.558;9.704;2022-08-19T07:41:28;19.80;99.90
27162;DHT22;54464;50.558;9.704;2022-08-19T07:43:54;19.90;99.90
27162;DHT22;54464;50.558;9.704;2022-08-19T07:46:20;19.90;99.90
27162;DHT22;54464;50.558;9.704;2022-08-19T07:48:48;19.90;99.90
27162;DHT22;54464;50.558;9.704;2022-08-19T07:51:18;19.90;99.90
27162;DHT22;54464;50.558;9.704;2022-08-19T07:53:44;19.90;99.90
27162;DHT22;54464;50.558;9.704;2022-08-19T07:56:12;19.90;99.90
27162;DHT22;54464;50.558;9.704;2022-08-19T07:58:41;19.90;99.90
27162;DHT22;54464;50.558;9.704;2022-08-19T08:01:09;19.90;99.90
27162;DHT22;54464;50.558;9.704;2022-08-19T08:03:36;20.00;99.90
27162;DHT22;54464;50.558;9.704;2022-08-19T08:06:21;20.00;99.90
27162;DHT22;54464;50.558;9.704;2022-08-19T08:09:06;20.10;99.90
27162;DHT22;54464;50.558;9.704;2022-08-19T08:11:44;20.20;99.90
27162;DHT22;54464;50.558;9.704;2022-08-19T08:14:17;20.20;99.90
27162;DHT22;54464;50.558;9.704;2022-08-19T08:16:43;20.30;99.90
27162;DHT22;54464;50.558;9.704;2022-08-19T08:19:12;20.30;99.90
27162;DHT22;54464;50.558;9.704;2022-08-19T08:21:40;20.40;99.90
27162;DHT22;54464;50.558;9.704;2022-08-19T08:24:06;20.40;99.90
27162;DHT22;54464;50.558;9.704;2022-08-19T08:26:32;20.40;99.90
27162;DHT22;54464;50.558;9.704;2022-08-19T08:28:58;20.50;99.90
27162;DHT22;54464;50.558;9.704;2022-08-19T08:31:24;20.50;99.90
27162;DHT22;54464;50.558;9.704;2022-08-19T08:33:49;20.60;99.90
27162;DHT22;54464;50.558;9.704;2022-08-19T08:36:16;20.60;99.90
27162;DHT22;54464;50.558;9.704;2022-08-19T08:38:43;20.60;99.90
27162;DHT22;54464;50.558;9.704;2022-08-19T08:43:49;20.60;99.90
27162;DHT22;54464;50.558;9.704;2022-08-19T08:51:52;20.70;99.90
27162;DHT22;54464;50.558;9.704;2022-08-19T08:54:20;20.70;99.90
27162;DHT22;54464;50.558;9.704;2022-08-19T08:56:49;20.70;99.90
27162;DHT22;54464;50.558;9.704;2022-08-19T08:59:26;20.70;99.90
27162;DHT22;54464;50.558;9.704;2022-08-19T09:01:53;20.70;99.90
27162;DHT22;54464;50.558;9.704;2022-08-19T09:04:19;20.70;99.90
27162;DHT22;54464;50.558;9.704;2022-08-19T09:09:41;20.80;99.90
27162;DHT22;54464;50.558;9.704;2022-08-19T09:14:57;21.10;99.90
27162;DHT22;54464;50.558;9.704;2022-08-19T09:17:29;21.10;99.90
27162;DHT22;54464;50.558;9.704;2022-08-19T09:22:38;21.20;99.90
27162;DHT22;54464;50.558;9.704;2022-08-19T09:25:06;21.20;99.90
27162;DHT22;54464;50.558;9.704;2022-08-19T09:27:32;21.20;99.90
27162;DHT22;54464;50.558;9.704;2022-08-19T09:29:58;21.30;99.90
27162;DHT22;54464;50.558;9.704;2022-08-19T09:32:24;21.30;99.90
27162;DHT22;54464;50.558;9.704;2022-08-19T09:34:53;21.30;99.90
27162;DHT22;54464;50.558;9.704;2022-08-19T09:37:24;21.30;99.90
27162;DHT22;54464;50.558;9.704;2022-08-19T09:39:50;21.30;99.90
27162;DHT22;54464;50.558;9.704;2022-08-19T09:42:16;21.30;99.90
27162;DHT22;54464;50.558;9.704;2022-08-19T09:44:42;21.40;99.90
27162;DHT22;54464;50.558;9.704;2022-08-19T09:47:10;21.40;99.90
27162;DHT22;54464;50.558;9.704;2022-08-19T09:49:37;21.40;99.90
27162;DHT22;54464;50.558;9.704;2022-08-19T09:52:05;21.40;99.90
27162;DHT22;54464;50.558;9.704;2022-08-19T09:54:31;21.50;99.90
27162;DHT22;54464;50.558;9.704;2022-08-19T09:56:59;21.60;99.90
27162;DHT22;54464;50.558;9.704;2022-08-19T09:59:28;21.70;99.90
27162;DHT22;54464;50.558;9.704;2022-08-19T10:01:54;21.70;99.90
27162;DHT22;54464;50.558;9.704;2022-08-19T10:04:20;21.70;99.90
27162;DHT22;54464;50.558;9.704;2022-08-19T10:06:47;21.70;99.90
27162;DHT22;54464;50.558;9.704;2022-08-19T10:09:15;21.70;99.90
27162;DHT22;54464;50.558;9.704;2022-08-19T10:11:43;21.70;99.90
27162;DHT22;54464;50.558;9.704;2022-08-19T10:14:15;21.70;99.90
27162;DHT22;54464;50.558;9.704;2022-08-19T10:16:42;21.80;99.90
27162;DHT22;54464;50.558;9.704;2022-08-19T10:19:08;21.80;99.90
27162;DHT22;54464;50.558;9.704;2022-08-19T10:21:35;22.00;99.90
27162;DHT22;54464;50.558;9.704;2022-08-19T10:24:03;22.10;99.90
27162;DHT22;54464;50.558;9.704;2022-08-19T10:26:36;22.30;99.90
27162;DHT22;54464;50.558;9.704;2022-08-19T10:29:03;22.40;99.90
27162;DHT22;54464;50.558;9.704;2022-08-19T10:31:32;22.70;99.90
27162;DHT22;54464;50.558;9.704;2022-08-19T10:33:59;23.00;99.90
27162;DHT22;54464;50.558;9.704;2022-08-19T10:36:31;23.20;99.90
27162;DHT22;54464;50.558;9.704;2022-08-19T10:38:58;23.40;99.90
27162;DHT22;54464;50.558;9.704;2022-08-19T10:41:28;23.60;99.90
27162;DHT22;54464;50.558;9.704;2022-08-19T10:43:59;23.90;99.60
27162;DHT22;54464;50.558;9.704;2022-08-19T10:46:27;24.20;98.60
27162;DHT22;54464;50.558;9.704;2022-08-19T10:48:53;24.30;98.40
27162;DHT22;54464;50.558;9.704;2022-08-19T10:51:20;24.20;98.60
27162;DHT22;54464;50.558;9.704;2022-08-19T10:54:04;24.30;98.70
27162;DHT22;54464;50.558;9.704;2022-08-19T10:56:31;24.50;98.20
27162;DHT22;54464;50.558;9.704;2022-08-19T10:59:16;24.80;98.00
27162;DHT22;54464;50.558;9.704;2022-08-19T11:01:44;24.90;97.60
27162;DHT22;54464;50.558;9.704;2022-08-19T11:04:11;25.10;96.60
27162;DHT22;54464;50.558;9.704;2022-08-19T11:06:40;25.00;96.80
27162;DHT22;54464;50.558;9.704;2022-08-19T11:09:07;24.80;96.80
27162;DHT22;54464;50.558;9.704;2022-08-19T11:11:33;24.70;96.30
27162;DHT22;54464;50.558;9.704;2022-08-19T11:14:04;24.70;95.90
27162;DHT22;54464;50.558;9.704;2022-08-19T11:16:30;24.60;96.00
27162;DHT22;54464;50.558;9.704;2022-08-19T11:18:58;24.50;95.40
27162;DHT22;54464;50.558;9.704;2022-08-19T11:23:54;24.30;96.40
27162;DHT22;54464;50.558;9.704;2022-08-19T11:26:21;24.20;96.80
27162;DHT22;54464;50.558;9.704;2022-08-19T11:28:47;24.20;96.70
27162;DHT22;54464;50.558;9.704;2022-08-19T11:31:16;24.50;96.00
27162;DHT22;54464;50.558;9.704;2022-08-19T11:33:43;24.80;96.30
27162;DHT22;54464;50.558;9.704;2022-08-19T11:36:09;24.80;96.10
27162;DHT22;54464;50.558;9.704;2022-08-19T11:38:36;24.70;96.70
27162;DHT22;54464;50.558;9.704;2022-08-19T11:41:05;24.50;96.40
27162;DHT22;54464;50.558;9.704;2022-08-19T11:43:33;24.40;95.90
27162;DHT22;54464;50.558;9.704;2022-08-19T11:45:58;24.30;96.30
27162;DHT22;54464;50.558;9.704;2022-08-19T11:48:25;24.50;94.70
27162;DHT22;54464;50.558;9.704;2022-08-19T11:50:54;24.60;93.80
27162;DHT22;54464;50.558;9.704;2022-08-19T11:53:22;24.70;93.90
27162;DHT22;54464;50.558;9.704;2022-08-19T11:55:49;24.60;95.00
27162;DHT22;54464;50.558;9.704;2022-08-19T11:58:16;24.50;96.10
27162;DHT22;54464;50.558;9.704;2022-08-19T12:00:43;24.50;96.70
27162;DHT22;54464;50.558;9.704;2022-08-19T12:03:11;24.50;97.00
27162;DHT22;54464;50.558;9.704;2022-08-19T12:05:39;24.60;96.70
27162;DHT22;54464;50.558;9.704;2022-08-19T12:08:06;24.70;95.90
27162;DHT22;54464;50.558;9.704;2022-08-19T12:10:32;24.90;96.30
27162;DHT22;54464;50.558;9.704;2022-08-19T12:12:58;25.20;96.10
27162;DHT22;54464;50.558;9.704;2022-08-19T12:15:24;25.40;95.20
27162;DHT22;54464;50.558;9.704;2022-08-19T12:17:49;25.30;95.30
27162;DHT22;54464;50.558;9.704;2022-08-19T12:20:15;25.10;95.00
27162;DHT22;54464;50.558;9.704;2022-08-19T12:22:42;24.90;95.20
27162;DHT22;54464;50.558;9.704;2022-08-19T12:25:12;24.80;95.80
27162;DHT22;54464;50.558;9.704;2022-08-19T12:27:38;24.70;95.40
27162;DHT22;54464;50.558;9.704;2022-08-19T12:30:06;24.60;95.00
27162;DHT22;54464;50.558;9.704;2022-08-19T12:32:32;24.60;94.80
27162;DHT22;54464;50.558;9.704;2022-08-19T12:34:58;24.50;94.50
27162;DHT22;54464;50.558;9.704;2022-08-19T12:37:24;24.60;95.80
27162;DHT22;54464;50.558;9.704;2022-08-19T12:39:49;24.80;94.80
27162;DHT22;54464;50.558;9.704;2022-08-19T12:42:15;24.90;93.50
27162;DHT22;54464;50.558;9.704;2022-08-19T12:44:42;24.80;93.40
27162;DHT22;54464;50.558;9.704;2022-08-19T12:47:11;24.70;93.30
27162;DHT22;54464;50.558;9.704;2022-08-19T12:49:37;24.90;94.00
27162;DHT22;54464;50.558;9.704;2022-08-19T12:52:05;25.20;94.10
27162;DHT22;54464;50.558;9.704;2022-08-19T12:54:31;25.60;94.00
27162;DHT22;54464;50.558;9.704;2022-08-19T12:56:57;25.90;92.70
27162;DHT22;54464;50.558;9.704;2022-08-19T12:59:25;26.20;91.60
27162;DHT22;54464;50.558;9.704;2022-08-19T13:01:50;26.10;91.40
27162;DHT22;54464;50.558;9.704;2022-08-19T13:04:16;26.00;91.10
27162;DHT22;54464;50.558;9.704;2022-08-19T13:06:43;25.90;91.30
27162;DHT22;54464;50.558;9.704;2022-08-19T13:09:08;26.10;91.40
27162;DHT22;54464;50.558;9.704;2022-08-19T13:11:34;26.40;90.40
27162;DHT22;54464;50.558;9.704;2022-08-19T13:14:02;26.80;90.30
27162;DHT22;54464;50.558;9.704;2022-08-19T13:16:28;26.60;91.20
27162;DHT22;54464;50.558;9.704;2022-08-19T13:18:55;26.50;91.00
27162;DHT22;54464;50.558;9.704;2022-08-19T13:21:25;26.30;91.00
27162;DHT22;54464;50.558;9.704;2022-08-19T13:23:51;26.00;92.00
27162;DHT22;54464;50.558;9.704;2022-08-19T13:26:18;25.80;91.80
27162;DHT22;54464;50.558;9.704;2022-08-19T13:28:44;25.70;92.00
27162;DHT22;54464;50.558;9.704;2022-08-19T13:31:32;25.40;91.80
27162;DHT22;54464;50.558;9.704;2022-08-19T13:34:18;25.20;91.60
27162;DHT22;54464;50.558;9.704;2022-08-19T13:36:45;25.10;91.60
27162;DHT22;54464;50.558;9.704;2022-08-19T13:39:11;25.20;91.90
27162;DHT22;54464;50.558;9.704;2022-08-19T13:41:44;25.30;91.90
27162;DHT22;54464;50.558;9.704;2022-08-19T13:44:14;25.60;91.80
27162;DHT22;54464;50.558;9.704;2022-08-19T13:46:41;25.70;91.70
27162;DHT22;54464;50.558;9.704;2022-08-19T13:49:13;25.80;91.00
27162;DHT22;54464;50.558;9.704;2022-08-19T13:51:41;25.90;91.30
27162;DHT22;54464;50.558;9.704;2022-08-19T13:54:07;26.00;91.20
27162;DHT22;54464;50.558;9.704;2022-08-19T13:56:34;26.10;90.30
27162;DHT22;54464;50.558;9.704;2022-08-19T13:59:01;26.00;91.10
27162;DHT22;54464;50.558;9.704;2022-08-19T14:01:26;26.10;91.20
27162;DHT22;54464;50.558;9.704;2022-08-19T14:03:52;26.20;91.20
27162;DHT22;54464;50.558;9.704;2022-08-19T14:06:19;26.30;90.40
27162;DHT22;54464;50.558;9.704;2022-08-19T14:08:45;26.40;90.40
27162;DHT22;54464;50.558;9.704;2022-08-19T14:11:11;26.50;89.90
27162;DHT22;54464;50.558;9.704;2022-08-19T14:13:37;26.60;90.00
27162;DHT22;54464;50.558;9.704;2022-08-19T14:16:10;26.70;90.10
27162;DHT22;54464;50.558;9.704;2022-08-19T14:18:37;26.90;90.00
27162;DHT22;54464;50.558;9.704;2022-08-19T14:21:05;27.00;88.70
27162;DHT22;54464;50.558;9.704;2022-08-19T14:23:32;27.00;86.60
27162;DHT22;54464;50.558;9.704;2022-08-19T14:26:07;26.80;88.40
27162;DHT22;54464;50.558;9.704;2022-08-19T14:28:33;26.70;88.60
27162;DHT22;54464;50.558;9.704;2022-08-19T14:30:59;26.60;89.20
27162;DHT22;54464;50.558;9.704;2022-08-19T14:33:24;26.40;88.60
27162;DHT22;54464;50.558;9.704;2022-08-19T14:35:50;26.30;89.60
27162;DHT22;54464;50.558;9.704;2022-08-19T14:38:18;26.20;90.10
27162;DHT22;54464;50.558;9.704;2022-08-19T14:40:44;26.10;90.10
27162;DHT22;54464;50.558;9.704;2022-08-19T14:43:11;26.10;90.20
27162;DHT22;54464;50.558;9.704;2022-08-19T14:45:38;26.00;90.30
27162;DHT22;54464;50.558;9.704;2022-08-19T14:48:05;26.00;91.10
27162;DHT22;54464;50.558;9.704;2022-08-19T14:50:32;26.00;91.00
27162;DHT22;54464;50.558;9.704;2022-08-19T14:53:04;26.00;90.80
27162;DHT22;54464;50.558;9.704;2022-08-19T14:55:30;26.00;90.60
27162;DHT22;54464;50.558;9.704;2022-08-19T14:57:57;26.00;90.20
27162;DHT22;54464;50.558;9.704;2022-08-19T15:00:23;26.10;90.30
27162;DHT22;54464;50.558;9.704;2022-08-19T15:02:50;26.30;89.30
27162;DHT22;54464;50.558;9.704;2022-08-19T15:05:16;26.30;89.20
27162;DHT22;54464;50.558;9.704;2022-08-19T15:07:43;26.30;89.50
27162;DHT22;54464;50.558;9.704;2022-08-19T15:10:11;26.20;89.60
27162;DHT22;54464;50.558;9.704;2022-08-19T15:12:38;26.10;90.10
27162;DHT22;54464;50.558;9.704;2022-08-19T15:15:11;26.10;90.30
27162;DHT22;54464;50.558;9.704;2022-08-19T15:17:38;26.20;89.50
27162;DHT22;54464;50.558;9.704;2022-08-19T15:20:06;26.20;90.70
27162;DHT22;54464;50.558;9.704;2022-08-19T15:22:32;26.20;90.90
27162;DHT22;54464;50.558;9.704;2022-08-19T15:25:00;26.30;90.00
27162;DHT22;54464;50.558;9.704;2022-08-19T15:27:26;26.20;89.30
27162;DHT22;54464;50.558;9.704;2022-08-19T15:29:52;26.30;89.50
27162;DHT22;54464;50.558;9.704;2022-08-19T15:32:18;26.30;90.50
27162;DHT22;54464;50.558;9.704;2022-08-19T15:34:44;26.50;90.20
27162;DHT22;54464;50.558;9.704;2022-08-19T15:37:10;26.60;89.30
27162;DHT22;54464;50.558;9.704;2022-08-19T15:39:36;26.70;88.50
27162;DHT22;54464;50.558;9.704;2022-08-19T15:42:02;26.80;90.00
27162;DHT22;54464;50.558;9.704;2022-08-19T15:44:28;26.80;87.40
27162;DHT22;54464;50.558;9.704;2022-08-19T15:46:54;26.90;86.60
27162;DHT22;54464;50.558;9.704;2022-08-19T15:49:20;26.90;88.70
27162;DHT22;54464;50.558;9.704;2022-08-19T15:51:48;27.00;88.10
27162;DHT22;54464;50.558;9.704;2022-08-19T15:54:17;26.90;86.70
27162;DHT22;54464;50.558;9.704;2022-08-19T15:56:47;26.90;87.20